sensor_id;sensor_type;location;lat;lon;timestamp;temperature;humidity
42227;DHT22;27892;52.378;13.122;2023-05-10T00:00:33;15.80;43.10
42227;DHT22;27892;52.378;13.122;2023-05-10T00:02:59;15.80;43.30
42227;DHT22;27892;52.378;13.122;2023-05-10T00:05:24;15.80;43.20
42227;DHT22;27892;52.378;13.122;2023-05-10T00:07:50;15.60;44.10
42227;DHT22;27892;52.378;13.122;2023-05-10T00:10:16;15.80;43.40
42227;DHT22;27892;52.378;13.122;2023-05-10T00:12:42;15.90;43.10
42227;DHT22;27892;52.378;13.122;2023-05-10T00:15:08;15.70;43.10
42227;DHT22;27892;52.378;13.122;2023-05-10T00:17:34;15.70;43.30
42227;DHT22;27892;52.378;13.122;2023-05-10T00:20:00;15.80;43.20
42227;DHT22;27892;52.378;13.122;2023-05-10T00:22:26;15.80;43.20
42227;DHT22;27892;52.378;13.122;2023-05-10T00:24:51;15.70;43.30
42227;DHT22;27892;52.378;13.122;2023-05-10T00:27:17;15.60;43.70
42227;DHT22;27892;52.378;13.122;2023-05-10T00:29:42;15.70;43.50
42227;DHT22;27892;52.378;13.122;2023-05-10T00:32:08;15.80;44.10
42227;DHT22;27892;52.378;13.122;2023-05-10T00:34:34;15.70;43.50
42227;DHT22;27892;52.378;13.122;2023-05-10T00:36:59;15.60;43.80
42227;DHT22;27892;52.378;13.122;2023-05-10T00:39:25;15.60;43.70
42227;DHT22;27892;52.378;13.122;2023-05-10T00:41:52;15.70;43.60
42227;DHT22;27892;52.378;13.122;2023-05-10T00:44:17;15.60;43.80
42227;DHT22;27892;52.378;13.122;2023-05-10T00:46:44;15.70;43.70
42227;DHT22;27892;52.378;13.122;2023-05-10T00:49:10;15.70;43.50
42227;DHT22;27892;52.378;13.122;2023-05-10T00:51:36;15.70;43.40
42227;DHT22;27892;52.378;13.122;2023-05-10T00:54:03;15.70;43.60
42227;DHT22;27892;52.378;13.122;2023-05-10T00:56:28;15.60;43.60
42227;DHT22;27892;52.378;13.122;2023-05-10T00:58:55;15.70;43.80
42227;DHT22;27892;52.378;13.122;2023-05-10T01:01:21;15.60;43.90
42227;DHT22;27892;52.378;13.122;2023-05-10T01:03:47;15.60;43.70
42227;DHT22;27892;52.378;13.122;2023-05-10T01:06:13;15.60;43.50
42227;DHT22;27892;52.378;13.122;2023-05-10T01:08:39;15.70;43.40
42227;DHT22;27892;52.378;13.122;2023-05-10T01:11:06;15.50;43.40
42227;DHT22;27892;52.378;13.122;2023-05-10T01:13:35;15.60;43.50
42227;DHT22;27892;52.378;13.122;2023-05-10T01:16:03;15.50;43.70
42227;DHT22;27892;52.378;13.122;2023-05-10T01:18:34;15.40;43.90
42227;DHT22;27892;52.378;13.122;2023-05-10T01:21:27;15.40;44.10
42227;DHT22;27892;52.378;13.122;2023-05-10T01:35:40;15.10;44.70
42227;DHT22;27892;52.378;13.122;2023-05-10T01:41:03;15.10;44.80
42227;DHT22;27892;52.378;13.122;2023-05-10T01:43:39;15.10;44.70
42227;DHT22;27892;52.378;13.122;2023-05-10T01:46:10;15.10;44.70
42227;DHT22;27892;52.378;13.122;2023-05-10T01:48:54;15.00;44.90
42227;DHT22;27892;52.378;13.122;2023-05-10T01:51:23;14.90;44.90
42227;DHT22;27892;52.378;13.122;2023-05-10T01:53:53;14.90;45.10
42227;DHT22;27892;52.378;13.122;2023-05-10T01:56:23;14.90;45.10
42227;DHT22;27892;52.378;13.122;2023-05-10T01:58:50;14.80;45.10
42227;DHT22;27892;52.378;13.122;2023-05-10T02:01:19;14.60;45.40
42227;DHT22;27892;52.378;13.122;2023-05-10T02:03:47;14.70;45.60
42227;DHT22;27892;52.378;13.122;2023-05-10T02:06:14;14.70;45.40
42227;DHT22;27892;52.378;13.122;2023-05-10T02:08:43;14.60;45.60
42227;DHT22;27892;52.378;13.122;2023-05-10T02:11:13;14.60;45.80
42227;DHT22;27892;52.378;13.122;2023-05-10T02:13:39;14.60;45.80
42227;DHT22;27892;52.378;13.122;2023-05-10T02:16:07;14.50;45.90
42227;DHT22;27892;52.378;13.122;2023-05-10T02:18:34;14.40;46.00
42227;DHT22;27892;52.378;13.122;2023-05-10T02:21:02;14.40;46.20
42227;DHT22;27892;52.378;13.122;2023-05-10T02:23:29;14.20;46.50
42227;DHT22;27892;52.378;13.122;2023-05-10T02:25:56;14.20;46.60
42227;DHT22;27892;52.378;13.122;2023-05-10T02:28:23;14.20;46.60
42227;DHT22;27892;52.378;13.122;2023-05-10T02:30:51;14.10;46.70
42227;DHT22;27892;52.378;13.122;2023-05-10T02:33:18;14.20;46.80
42227;DHT22;27892;52.378;13.122;2023-05-10T02:35:46;14.10;46.70
42227;DHT22;27892;52.378;13.122;2023-05-10T02:38:14;14.10;47.00
42227;DHT22;27892;52.378;13.122;2023-05-10T02:40:41;14.10;47.20
42227;DHT22;27892;52.378;13.122;2023-05-10T02:43:11;14.00;47.10
42227;DHT22;27892;52.378;13.122;2023-05-10T02:45:38;14.10;47.00
42227;DHT22;27892;52.378;13.122;2023-05-10T02:48:05;14.00;47.00
42227;DHT22;27892;52.378;13.122;2023-05-10T02:50:33;14.00;47.10
42227;DHT22;27892;52.378;13.122;2023-05-10T02:53:09;14.10;46.90
42227;DHT22;27892;52.378;13.122;2023-05-10T02:55:38;14.10;46.90
42227;DHT22;27892;52.378;13.122;2023-05-10T02:58:06;14.00;46.80
42227;DHT22;27892;52.378;13.122;2023-05-10T03:00:31;14.00;47.00
42227;DHT22;27892;52.378;13.122;2023-05-10T03:02:58;14.00;47.00
42227;DHT22;27892;52.378;13.122;2023-05-10T03:05:23;14.10;46.90
42227;DHT22;27892;52.378;13.122;2023-05-10T03:07:49;14.10;46.90
42227;DHT22;27892;52.378;13.122;2023-05-10T03:10:16;14.10;46.80
42227;DHT22;27892;52.378;13.122;2023-05-10T03:18:06;14.10;46.90
42227;DHT22;27892;52.378;13.122;2023-05-10T03:20:41;14.10;47.10
42227;DHT22;27892;52.378;13.122;2023-05-10T03:23:27;14.00;47.10
42227;DHT22;27892;52.378;13.122;2023-05-10T03:25:54;14.00;48.20
42227;DHT22;27892;52.378;13.122;2023-05-10T03:28:21;13.90;47.60
42227;DHT22;27892;52.378;13.122;2023-05-10T03:30:47;13.80;47.80
42227;DHT22;27892;52.378;13.122;2023-05-10T03:33:13;13.80;47.80
42227;DHT22;27892;52.378;13.122;2023-05-10T03:35:39;13.70;47.90
42227;DHT22;27892;52.378;13.122;2023-05-10T03:38:05;13.80;47.90
42227;DHT22;27892;52.378;13.122;2023-05-10T03:40:31;13.80;47.90
42227;DHT22;27892;52.378;13.122;2023-05-10T03:42:58;13.80;47.90
42227;DHT22;27892;52.378;13.122;2023-05-10T03:45:24;13.70;48.30
42227;DHT22;27892;52.378;13.122;2023-05-10T03:47:49;13.60;48.30
42227;DHT22;27892;52.378;13.122;2023-05-10T03:50:15;13.60;48.30
42227;DHT22;27892;52.378;13.122;2023-05-10T03:52:41;13.70;48.20
42227;DHT22;27892;52.378;13.122;2023-05-10T03:55:07;13.80;48.20
42227;DHT22;27892;52.378;13.122;2023-05-10T03:57:33;13.80;48.00
42227;DHT22;27892;52.378;13.122;2023-05-10T03:59:59;13.90;48.00
42227;DHT22;27892;52.378;13.122;2023-05-10T04:02:25;13.90;47.80
42227;DHT22;27892;52.378;13.122;2023-05-10T04:04:50;13.70;47.90
42227;DHT22;27892;52.378;13.122;2023-05-10T04:07:16;13.80;48.80
42227;DHT22;27892;52.378;13.122;2023-05-10T04:09:42;13.70;48.10
42227;DHT22;27892;52.378;13.122;2023-05-10T04:12:08;13.90;48.40
42227;DHT22;27892;52.378;13.122;2023-05-10T04:14:33;13.90;48.30
42227;DHT22;27892;52.378;13.122;2023-05-10T04:16:59;13.90;48.30
42227;DHT22;27892;52.378;13.122;2023-05-10T04:19:29;13.90;48.30
42227;DHT22;27892;52.378;13.122;2023-05-10T04:21:55;13.90;48.20
42227;DHT22;27892;52.378;13.122;2023-05-10T04:24:21;13.70;48.30
42227;DHT22;27892;52.378;13.122;2023-05-10T04:26:46;13.90;48.50
42227;DHT22;27892;52.378;13.122;2023-05-10T04:29:12;13.90;48.40
42227;DHT22;27892;52.378;13.122;2023-05-10T04:31:38;14.00;48.30
42227;DHT22;27892;52.378;13.122;2023-05-10T04:34:03;14.10;48.60
42227;DHT22;27892;52.378;13.122;2023-05-10T04:36:29;14.20;48.30
42227;DHT22;27892;52.378;13.122;2023-05-10T04:38:55;14.30;48.00
42227;DHT22;27892;52.378;13.122;2023-05-10T04:41:20;14.40;47.90
42227;DHT22;27892;52.378;13.122;2023-05-10T04:43:46;14.40;47.50
42227;DHT22;27892;52.378;13.122;2023-05-10T04:46:14;14.40;47.70
42227;DHT22;27892;52.378;13.122;2023-05-10T04:48:40;14.40;47.30
42227;DHT22;27892;52.378;13.122;2023-05-10T04:51:05;14.60;47.50
42227;DHT22;27892;52.378;13.122;2023-05-10T04:53:32;14.50;47.50
42227;DHT22;27892;52.378;13.122;2023-05-10T04:55:58;14.50;47.50
42227;DHT22;27892;52.378;13.122;2023-05-10T04:58:23;14.30;47.40
42227;DHT22;27892;52.378;13.122;2023-05-10T05:00:49;14.60;47.70
42227;DHT22;27892;52.378;13.122;2023-05-10T05:03:15;14.70;47.50
42227;DHT22;27892;52.378;13.122;2023-05-10T05:05:40;14.90;47.00
42227;DHT22;27892;52.378;13.122;2023-05-10T05:08:06;14.50;47.20
42227;DHT22;27892;52.378;13.122;2023-05-10T05:10:32;14.30;47.60
42227;DHT22;27892;52.378;13.122;2023-05-10T05:12:57;14.60;47.60
42227;DHT22;27892;52.378;13.122;2023-05-10T05:15:23;14.90;46.90
42227;DHT22;27892;52.378;13.122;2023-05-10T05:17:49;14.80;46.70
42227;DHT22;27892;52.378;13.122;2023-05-10T05:20:14;15.10;46.70
42227;DHT22;27892;52.378;13.122;2023-05-10T05:22:40;14.70;47.00
42227;DHT22;27892;52.378;13.122;2023-05-10T05:25:06;14.90;46.90
42227;DHT22;27892;52.378;13.122;2023-05-10T05:27:32;14.70;47.20
42227;DHT22;27892;52.378;13.122;2023-05-10T05:29:58;14.70;47.00
42227;DHT22;27892;52.378;13.122;2023-05-10T05:32:24;14.80;47.20
42227;DHT22;27892;52.378;13.122;2023-05-10T05:34:50;15.00;47.10
42227;DHT22;27892;52.378;13.122;2023-05-10T05:37:18;15.20;46.40
42227;DHT22;27892;52.378;13.122;2023-05-10T05:39:44;15.10;46.10
42227;DHT22;27892;52.378;13.122;2023-05-10T05:42:11;15.50;46.70
42227;DHT22;27892;52.378;13.122;2023-05-10T05:44:37;16.00;45.70
42227;DHT22;27892;52.378;13.122;2023-05-10T05:47:03;16.50;45.40
42227;DHT22;27892;52.378;13.122;2023-05-10T05:49:29;16.90;43.80
42227;DHT22;27892;52.378;13.122;2023-05-10T05:52:02;19.10;42.80
42227;DHT22;27892;52.378;13.122;2023-05-10T05:54:27;20.30;38.50
42227;DHT22;27892;52.378;13.122;2023-05-10T05:56:57;21.10;36.20
42227;DHT22;27892;52.378;13.122;2023-05-10T05:59:23;22.60;35.80
42227;DHT22;27892;52.378;13.122;2023-05-10T06:01:49;23.00;32.90
42227;DHT22;27892;52.378;13.122;2023-05-10T06:04:15;23.50;34.00
42227;DHT22;27892;52.378;13.122;2023-05-10T06:06:41;25.10;33.00
42227;DHT22;27892;52.378;13.122;2023-05-10T06:09:08;24.70;29.30
42227;DHT22;27892;52.378;13.122;2023-05-10T06:11:34;25.30;30.00
42227;DHT22;27892;52.378;13.122;2023-05-10T06:14:00;25.30;29.40
42227;DHT22;27892;52.378;13.122;2023-05-10T06:16:26;24.30;29.90
42227;DHT22;27892;52.378;13.122;2023-05-10T06:18:51;25.50;30.60
42227;DHT22;27892;52.378;13.122;2023-05-10T06:21:17;25.90;28.70
42227;DHT22;27892;52.378;13.122;2023-05-10T06:23:43;25.60;27.60
42227;DHT22;27892;52.378;13.122;2023-05-10T06:26:09;25.40;29.20
42227;DHT22;27892;52.378;13.122;2023-05-10T06:28:35;26.20;28.10
42227;DHT22;27892;52.378;13.122;2023-05-10T06:31:03;26.70;27.80
42227;DHT22;27892;52.378;13.122;2023-05-10T06:33:29;27.10;26.60
42227;DHT22;27892;52.378;13.122;2023-05-10T06:35:55;25.80;27.20
42227;DHT22;27892;52.378;13.122;2023-05-10T06:38:21;25.40;28.00
42227;DHT22;27892;52.378;13.122;2023-05-10T06:40:47;25.30;28.50
42227;DHT22;27892;52.378;13.122;2023-05-10T06:43:12;25.30;28.50
42227;DHT22;27892;52.378;13.122;2023-05-10T06:45:38;25.90;28.60
42227;DHT22;27892;52.378;13.122;2023-05-10T06:48:04;24.90;28.40
42227;DHT22;27892;52.378;13.122;2023-05-10T06:50:29;26.20;28.50
42227;DHT22;27892;52.378;13.122;2023-05-10T06:52:55;27.70;27.50
42227;DHT22;27892;52.378;13.122;2023-05-10T06:55:21;27.70;26.10
42227;DHT22;27892;52.378;13.122;2023-05-10T06:57:47;27.40;27.40
42227;DHT22;27892;52.378;13.122;2023-05-10T07:00:13;28.10;26.40
42227;DHT22;27892;52.378;13.122;2023-05-10T07:02:39;28.50;26.60
42227;DHT22;27892;52.378;13.122;2023-05-10T07:05:05;28.50;25.40
42227;DHT22;27892;52.378;13.122;2023-05-10T07:07:31;30.10;25.20
42227;DHT22;27892;52.378;13.122;2023-05-10T07:09:57;30.40;25.10
42227;DHT22;27892;52.378;13.122;2023-05-10T07:12:23;30.40;24.70
42227;DHT22;27892;52.378;13.122;2023-05-10T07:14:49;29.70;24.00
42227;DHT22;27892;52.378;13.122;2023-05-10T07:17:15;30.40;24.60
42227;DHT22;27892;52.378;13.122;2023-05-10T07:19:40;30.00;25.00
42227;DHT22;27892;52.378;13.122;2023-05-10T07:22:06;31.70;25.00
42227;DHT22;27892;52.378;13.122;2023-05-10T07:24:32;32.00;23.40
42227;DHT22;27892;52.378;13.122;2023-05-10T07:26:58;32.40;22.10
42227;DHT22;27892;52.378;13.122;2023-05-10T07:29:24;32.40;22.50
42227;DHT22;27892;52.378;13.122;2023-05-10T07:31:50;31.20;22.60
42227;DHT22;27892;52.378;13.122;2023-05-10T07:34:15;29.30;24.00
42227;DHT22;27892;52.378;13.122;2023-05-10T07:36:41;26.70;26.40
42227;DHT22;27892;52.378;13.122;2023-05-10T07:39:09;26.30;27.80
42227;DHT22;27892;52.378;13.122;2023-05-10T07:41:35;26.30;28.60
42227;DHT22;27892;52.378;13.122;2023-05-10T07:44:03;26.90;28.40
42227;DHT22;27892;52.378;13.122;2023-05-10T07:46:29;27.30;27.40
42227;DHT22;27892;52.378;13.122;2023-05-10T07:48:55;26.20;27.50
42227;DHT22;27892;52.378;13.122;2023-05-10T07:51:21;25.30;28.80
42227;DHT22;27892;52.378;13.122;2023-05-10T07:53:46;25.40;29.40
42227;DHT22;27892;52.378;13.122;2023-05-10T07:56:32;25.10;29.70
42227;DHT22;27892;52.378;13.122;2023-05-10T07:58:58;24.70;29.60
42227;DHT22;27892;52.378;13.122;2023-05-10T08:01:25;25.20;30.10
42227;DHT22;27892;52.378;13.122;2023-05-10T08:03:50;25.70;29.20
42227;DHT22;27892;52.378;13.122;2023-05-10T08:06:20;26.10;28.60
42227;DHT22;27892;52.378;13.122;2023-05-10T08:08:47;25.70;29.40
42227;DHT22;27892;52.378;13.122;2023-05-10T08:11:18;26.40;29.50
42227;DHT22;27892;52.378;13.122;2023-05-10T08:13:47;26.50;27.70
42227;DHT22;27892;52.378;13.122;2023-05-10T08:16:13;27.20;28.30
42227;DHT22;27892;52.378;13.122;2023-05-10T08:18:39;26.80;28.10
42227;DHT22;27892;52.378;13.122;2023-05-10T08:21:05;28.10;27.00
42227;DHT22;27892;52.378;13.122;2023-05-10T08:23:31;29.40;25.50
42227;DHT22;27892;52.378;13.122;2023-05-10T08:25:57;29.60;26.10
42227;DHT22;27892;52.378;13.122;2023-05-10T08:28:23;29.70;25.40
42227;DHT22;27892;52.378;13.122;2023-05-10T08:30:49;30.10;25.00
42227;DHT22;27892;52.378;13.122;2023-05-10T08:33:15;30.20;25.20
42227;DHT22;27892;52.378;13.122;2023-05-10T08:35:41;30.40;24.90
42227;DHT22;27892;52.378;13.122;2023-05-10T08:38:07;29.70;25.70
42227;DHT22;27892;52.378;13.122;2023-05-10T08:40:32;28.60;26.70
42227;DHT22;27892;52.378;13.122;2023-05-10T08:43:09;28.30;26.80
42227;DHT22;27892;52.378;13.122;2023-05-10T08:45:43;28.10;27.80
42227;DHT22;27892;52.378;13.122;2023-05-10T08:48:10;27.10;27.60
42227;DHT22;27892;52.378;13.122;2023-05-10T08:50:37;26.70;28.70
42227;DHT22;27892;52.378;13.122;2023-05-10T08:53:12;26.50;29.40
42227;DHT22;27892;52.378;13.122;2023-05-10T08:55:39;26.30;29.10
42227;DHT22;27892;52.378;13.122;2023-05-10T08:58:06;26.40;29.40
42227;DHT22;27892;52.378;13.122;2023-05-10T09:00:32;25.90;29.70
42227;DHT22;27892;52.378;13.122;2023-05-10T09:02:59;25.50;30.40
42227;DHT22;27892;52.378;13.122;2023-05-10T09:05:25;25.90;30.40
42227;DHT22;27892;52.378;13.122;2023-05-10T09:07:51;25.70;30.20
42227;DHT22;27892;52.378;13.122;2023-05-10T09:10:17;26.20;30.00
42227;DHT22;27892;52.378;13.122;2023-05-10T09:12:44;26.60;29.80
42227;DHT22;27892;52.378;13.122;2023-05-10T09:15:10;27.00;29.40
42227;DHT22;27892;52.378;13.122;2023-05-10T09:17:38;26.60;29.20
42227;DHT22;27892;52.378;13.122;2023-05-10T09:20:05;26.00;30.30
42227;DHT22;27892;52.378;13.122;2023-05-10T09:22:31;25.20;30.10
42227;DHT22;27892;52.378;13.122;2023-05-10T09:27:30;25.60;31.60
42227;DHT22;27892;52.378;13.122;2023-05-10T09:29:56;25.90;30.50
42227;DHT22;27892;52.378;13.122;2023-05-10T09:32:21;25.50;30.60
42227;DHT22;27892;52.378;13.122;2023-05-10T09:34:49;26.00;31.00
42227;DHT22;27892;52.378;13.122;2023-05-10T09:37:15;26.10;30.00
42227;DHT22;27892;52.378;13.122;2023-05-10T09:39:41;26.00;30.40
42227;DHT22;27892;52.378;13.122;2023-05-10T09:42:08;25.30;30.50
42227;DHT22;27892;52.378;13.122;2023-05-10T09:44:34;25.40;30.70
42227;DHT22;27892;52.378;13.122;2023-05-10T09:47:01;25.50;30.60
42227;DHT22;27892;52.378;13.122;2023-05-10T09:49:27;26.10;29.90
42227;DHT22;27892;52.378;13.122;2023-05-10T09:52:07;26.20;29.70
42227;DHT22;27892;52.378;13.122;2023-05-10T09:54:34;26.40;30.10
42227;DHT22;27892;52.378;13.122;2023-05-10T09:57:00;26.60;30.10
42227;DHT22;27892;52.378;13.122;2023-05-10T09:59:27;27.00;29.90
42227;DHT22;27892;52.378;13.122;2023-05-10T10:01:56;25.90;29.40
42227;DHT22;27892;52.378;13.122;2023-05-10T10:04:22;26.00;30.20
42227;DHT22;27892;52.378;13.122;2023-05-10T10:06:59;26.70;30.40
42227;DHT22;27892;52.378;13.122;2023-05-10T10:09:26;27.30;29.00
42227;DHT22;27892;52.378;13.122;2023-05-10T10:11:52;27.20;29.00
42227;DHT22;27892;52.378;13.122;2023-05-10T10:14:19;27.30;29.30
42227;DHT22;27892;52.378;13.122;2023-05-10T10:16:46;27.60;29.20
42227;DHT22;27892;52.378;13.122;2023-05-10T10:19:12;27.20;28.70
42227;DHT22;27892;52.378;13.122;2023-05-10T10:21:37;27.50;29.60
42227;DHT22;27892;52.378;13.122;2023-05-10T10:24:03;28.00;28.50
42227;DHT22;27892;52.378;13.122;2023-05-10T10:26:35;28.10;27.90
42227;DHT22;27892;52.378;13.122;2023-05-10T10:29:23;28.20;28.00
42227;DHT22;27892;52.378;13.122;2023-05-10T10:34:31;28.40;27.50
42227;DHT22;27892;52.378;13.122;2023-05-10T10:36:57;29.10;28.00
42227;DHT22;27892;52.378;13.122;2023-05-10T10:39:26;29.60;26.70
42227;DHT22;27892;52.378;13.122;2023-05-10T10:41:54;29.90;26.50
42227;DHT22;27892;52.378;13.122;2023-05-10T10:52:37;29.90;26.60
42227;DHT22;27892;52.378;13.122;2023-05-10T10:55:12;29.40;25.80
42227;DHT22;27892;52.378;13.122;2023-05-10T10:57:55;28.60;27.40
42227;DHT22;27892;52.378;13.122;2023-05-10T11:00:32;29.10;27.70
42227;DHT22;27892;52.378;13.122;2023-05-10T11:03:11;29.80;26.90
42227;DHT22;27892;52.378;13.122;2023-05-10T11:05:44;29.40;26.60
42227;DHT22;27892;52.378;13.122;2023-05-10T11:08:27;29.00;27.10
42227;DHT22;27892;52.378;13.122;2023-05-10T11:16:23;27.60;28.60
42227;DHT22;27892;52.378;13.122;2023-05-10T11:21:19;28.10;28.30
42227;DHT22;27892;52.378;13.122;2023-05-10T11:23:52;28.20;28.20
42227;DHT22;27892;52.378;13.122;2023-05-10T11:26:25;28.10;28.20
42227;DHT22;27892;52.378;13.122;2023-05-10T11:28:53;28.00;27.50
42227;DHT22;27892;52.378;13.122;2023-05-10T11:31:23;27.90;28.10
42227;DHT22;27892;52.378;13.122;2023-05-10T11:33:53;28.10;28.40
42227;DHT22;27892;52.378;13.122;2023-05-10T11:36:24;28.00;28.30
42227;DHT22;27892;52.378;13.122;2023-05-10T11:38:51;28.30;28.20
42227;DHT22;27892;52.378;13.122;2023-05-10T11:41:18;28.50;28.30
42227;DHT22;27892;52.378;13.122;2023-05-10T11:43:49;28.30;27.10
42227;DHT22;27892;52.378;13.122;2023-05-10T11:46:15;28.00;27.30
42227;DHT22;27892;52.378;13.122;2023-05-10T11:48:42;27.90;27.90
42227;DHT22;27892;52.378;13.122;2023-05-10T11:51:09;28.30;28.30
42227;DHT22;27892;52.378;13.122;2023-05-10T11:53:35;28.60;27.60
42227;DHT22;27892;52.378;13.122;2023-05-10T11:56:09;28.70;27.40
42227;DHT22;27892;52.378;13.122;2023-05-10T11:58:36;28.80;27.60
42227;DHT22;27892;52.378;13.122;2023-05-10T12:01:03;28.40;27.60
42227;DHT22;27892;52.378;13.122;2023-05-10T12:03:29;28.30;27.70
42227;DHT22;27892;52.378;13.122;2023-05-10T12:05:56;28.20;28.50
42227;DHT22;27892;52.378;13.122;2023-05-10T12:08:24;28.50;28.10
42227;DHT22;27892;52.378;13.122;2023-05-10T12:10:50;28.70;28.20
42227;DHT22;27892;52.378;13.122;2023-05-10T12:13:16;28.40;26.80
42227;DHT22;27892;52.378;13.122;2023-05-10T12:15:43;28.30;28.30
42227;DHT22;27892;52.378;13.122;2023-05-10T12:18:14;28.40;27.70
42227;DHT22;27892;52.378;13.122;2023-05-10T12:20:47;28.20;28.40
42227;DHT22;27892;52.378;13.122;2023-05-10T12:23:13;28.70;28.00
42227;DHT22;27892;52.378;13.122;2023-05-10T12:25:39;29.00;27.30
42227;DHT22;27892;52.378;13.122;2023-05-10T12:28:07;29.10;27.60
42227;DHT22;27892;52.378;13.122;2023-05-10T12:30:34;29.30;27.60
42227;DHT22;27892;52.378;13.122;2023-05-10T12:33:11;29.20;27.20
42227;DHT22;27892;52.378;13.122;2023-05-10T12:35:48;29.00;27.70
42227;DHT22;27892;52.378;13.122;2023-05-10T12:38:32;28.90;27.00
42227;DHT22;27892;52.378;13.122;2023-05-10T12:40:59;29.10;27.30
42227;DHT22;27892;52.378;13.122;2023-05-10T12:43:25;28.50;27.20
42227;DHT22;27892;52.378;13.122;2023-05-10T12:45:51;28.30;27.80
42227;DHT22;27892;52.378;13.122;2023-05-10T12:48:16;28.70;28.40
42227;DHT22;27892;52.378;13.122;2023-05-10T12:50:42;29.30;28.20
42227;DHT22;27892;52.378;13.122;2023-05-10T12:53:08;29.80;27.60
42227;DHT22;27892;52.378;13.122;2023-05-10T12:55:34;29.70;26.90
42227;DHT22;27892;52.378;13.122;2023-05-10T12:57:59;28.80;26.80
42227;DHT22;27892;52.378;13.122;2023-05-10T13:00:25;29.20;27.30
42227;DHT22;27892;52.378;13.122;2023-05-10T13:02:51;29.40;27.40
42227;DHT22;27892;52.378;13.122;2023-05-10T13:05:16;29.70;26.90
42227;DHT22;27892;52.378;13.122;2023-05-10T13:07:42;29.90;26.70
42227;DHT22;27892;52.378;13.122;2023-05-10T13:10:09;29.20;26.00
42227;DHT22;27892;52.378;13.122;2023-05-10T13:12:35;28.80;27.10
42227;DHT22;27892;52.378;13.122;2023-05-10T13:15:02;29.20;27.40
42227;DHT22;27892;52.378;13.122;2023-05-10T13:17:28;29.40;27.30
42227;DHT22;27892;52.378;13.122;2023-05-10T13:19:54;29.80;26.60
42227;DHT22;27892;52.378;13.122;2023-05-10T13:22:20;29.70;26.80
42227;DHT22;27892;52.378;13.122;2023-05-10T13:24:45;29.80;26.40
42227;DHT22;27892;52.378;13.122;2023-05-10T13:27:11;29.50;26.00
42227;DHT22;27892;52.378;13.122;2023-05-10T13:29:37;29.50;26.50
42227;DHT22;27892;52.378;13.122;2023-05-10T13:32:03;29.90;26.50
42227;DHT22;27892;52.378;13.122;2023-05-10T13:34:28;30.30;26.40
42227;DHT22;27892;52.378;13.122;2023-05-10T13:36:54;30.50;25.90
42227;DHT22;27892;52.378;13.122;2023-05-10T13:39:22;30.60;25.70
42227;DHT22;27892;52.378;13.122;2023-05-10T13:41:47;30.00;26.00
42227;DHT22;27892;52.378;13.122;2023-05-10T13:44:14;30.00;26.10
42227;DHT22;27892;52.378;13.122;2023-05-10T13:46:41;29.90;26.00
42227;DHT22;27892;52.378;13.122;2023-05-10T13:49:08;29.60;26.70
42227;DHT22;27892;52.378;13.122;2023-05-10T13:51:35;29.40;27.00
42227;DHT22;27892;52.378;13.122;2023-05-10T13:54:01;29.30;26.60
42227;DHT22;27892;52.378;13.122;2023-05-10T13:56:27;29.20;26.50
42227;DHT22;27892;52.378;13.122;2023-05-10T13:58:53;29.20;26.60
42227;DHT22;27892;52.378;13.122;2023-05-10T14:01:18;29.20;26.30
42227;DHT22;27892;52.378;13.122;2023-05-10T14:03:44;29.00;26.50
42227;DHT22;27892;52.378;13.122;2023-05-10T14:06:10;28.70;27.10
42227;DHT22;27892;52.378;13.122;2023-05-10T14:08:36;28.20;27.20
42227;DHT22;27892;52.378;13.122;2023-05-10T14:11:02;28.10;27.80
42227;DHT22;27892;52.378;13.122;2023-05-10T14:13:27;28.60;27.90
42227;DHT22;27892;52.378;13.122;2023-05-10T14:15:54;29.10;27.50
42227;DHT22;27892;52.378;13.122;2023-05-10T14:18:20;29.20;26.50
42227;DHT22;27892;52.378;13.122;2023-05-10T14:20:45;29.00;26.00
42227;DHT22;27892;52.378;13.122;2023-05-10T14:23:11;28.90;26.50
42227;DHT22;27892;52.378;13.122;2023-05-10T14:25:40;28.70;26.70
42227;DHT22;27892;52.378;13.122;2023-05-10T14:28:05;28.50;26.90
42227;DHT22;27892;52.378;13.122;2023-05-10T14:30:31;28.00;27.00
42227;DHT22;27892;52.378;13.122;2023-05-10T14:32:58;27.80;27.50
42227;DHT22;27892;52.378;13.122;2023-05-10T14:35:24;28.00;27.70
42227;DHT22;27892;52.378;13.122;2023-05-10T14:37:49;28.00;27.30
42227;DHT22;27892;52.378;13.122;2023-05-10T14:40:15;28.00;27.30
42227;DHT22;27892;52.378;13.122;2023-05-10T14:42:42;28.00;27.40
42227;DHT22;27892;52.378;13.122;2023-05-10T14:45:09;28.00;27.30
42227;DHT22;27892;52.378;13.122;2023-05-10T14:47:35;27.90;27.30
42227;DHT22;27892;52.378;13.122;2023-05-10T14:50:00;27.90;27.30
42227;DHT22;27892;52.378;13.122;2023-05-10T14:52:26;27.80;27.30
42227;DHT22;27892;52.378;13.122;2023-05-10T14:54:52;27.70;27.50
42227;DHT22;27892;52.378;13.122;2023-05-10T14:57:17;27.60;27.60
42227;DHT22;27892;52.378;13.122;2023-05-10T14:59:43;27.60;27.90
42227;DHT22;27892;52.378;13.122;2023-05-10T15:02:09;27.70;28.30
42227;DHT22;27892;52.378;13.122;2023-05-10T15:04:35;27.70;28.20
42227;DHT22;27892;52.378;13.122;2023-05-10T15:07:01;27.70;28.00
42227;DHT22;27892;52.378;13.122;2023-05-10T15:09:27;27.60;28.10
42227;DHT22;27892;52.378;13.122;2023-05-10T15:11:53;27.60;28.20
42227;DHT22;27892;52.378;13.122;2023-05-10T15:14:19;27.60;28.20
42227;DHT22;27892;52.378;13.122;2023-05-10T15:16:44;27.70;29.40
42227;DHT22;27892;52.378;13.122;2023-05-10T15:19:10;27.70;30.00
42227;DHT22;27892;52.378;13.122;2023-05-10T15:21:36;27.60;32.00
42227;DHT22;27892;52.378;13.122;2023-05-10T15:24:07;27.60;34.00
42227;DHT22;27892;52.378;13.122;2023-05-10T15:26:33;27.60;34.70
42227;DHT22;27892;52.378;13.122;2023-05-10T15:28:59;27.60;35.20
42227;DHT22;27892;52.378;13.122;2023-05-10T15:31:24;27.40;35.80
42227;DHT22;27892;52.378;13.122;2023-05-10T15:33:50;27.40;36.40
42227;DHT22;27892;52.378;13.122;2023-05-10T15:36:16;27.30;36.70
42227;DHT22;27892;52.378;13.122;2023-05-10T15:38:43;27.20;37.20
42227;DHT22;27892;52.378;13.122;2023-05-10T15:41:09;27.20;37.50
42227;DHT22;27892;52.378;13.122;2023-05-10T15:43:36;27.00;37.90
42227;DHT22;27892;52.378;13.122;2023-05-10T15:46:02;26.80;38.10
42227;DHT22;27892;52.378;13.122;2023-05-10T15:48:27;26.70;38.70
42227;DHT22;27892;52.378;13.122;2023-05-10T15:50:56;26.60;38.90
42227;DHT22;27892;52.378;13.122;2023-05-10T15:53:22;26.50;38.90
42227;DHT22;27892;52.378;13.122;2023-05-10T15:55:47;26.50;39.40